Time;durP1;ratioP1;P1;durP2;ratioP2;P2;SDS_P1;SDS_P2;PMS_P1;PMS_P2;Temp;Humidity;BMP_temperature;BMP_pressure;BME280_temperature;BME280_humidity;BME280_pressure;Samples;Min_cycle;Max_cycle;Signal;HPM_P1;HPM_P2
2023/10/21 00:01:21;;;;;;;5.82;3.60;;;;;;;;;;5007745;28;20069;-74
2023/10/21 00:03:46;;;;;;;10.55;3.65;;;;;;;;;;5003963;28;20053;-74
2023/10/21 00:06:11;;;;;;;9.75;4.65;;;;;;;;;;5004191;28;20257;-74
2023/10/21 00:08:37;;;;;;;6.20;3.53;;;;;;;;;;4986262;28;20441;-74
2023/10/21 00:11:08;;;;;;;6.68;3.85;;;;;;;;;;4986559;28;20108;-74
2023/10/21 00:13:35;;;;;;;6.55;3.88;;;;;;;;;;5003985;28;20489;-74
2023/10/21 00:16:00;;;;;;;6.65;3.88;;;;;;;;;;5004377;28;20803;-74
2023/10/21 00:18:26;;;;;;;6.40;3.92;;;;;;;;;;4985733;28;20037;-74
2023/10/21 00:20:55;;;;;;;9.10;3.75;;;;;;;;;;5004126;28;20476;-74
2023/10/21 00:23:21;;;;;;;7.85;4.43;;;;;;;;;;4986220;28;20064;-74
2023/10/21 00:25:47;;;;;;;10.85;4.75;;;;;;;;;;5004281;28;20094;-74
2023/10/21 00:28:12;;;;;;;8.65;4.53;;;;;;;;;;4987418;28;20034;-74
2023/10/21 00:30:38;;;;;;;10.00;4.68;;;;;;;;;;4990989;28;20033;-74
2023/10/21 00:33:03;;;;;;;8.80;4.32;;;;;;;;;;5015091;28;20627;-74
2023/10/21 00:35:31;;;;;;;5.68;3.78;;;;;;;;;;5013764;28;20042;-74
2023/10/21 00:37:57;;;;;;;9.77;3.95;;;;;;;;;;5003498;28;20042;-74
2023/10/21 00:40:22;;;;;;;4.93;3.30;;;;;;;;;;5003768;28;20080;-74
2023/10/21 00:42:48;;;;;;;10.18;3.80;;;;;;;;;;5003349;28;20042;-74
2023/10/21 00:45:14;;;;;;;10.00;3.95;;;;;;;;;;5003910;28;20038;-74
2023/10/21 00:47:39;;;;;;;7.40;3.58;;;;;;;;;;5003121;28;20052;-74
2023/10/21 00:50:05;;;;;;;9.30;4.10;;;;;;;;;;5003705;28;20091;-74
2023/10/21 00:52:30;;;;;;;8.07;3.80;;;;;;;;;;5016528;28;20029;-75
2023/10/21 00:54:58;;;;;;;14.85;4.50;;;;;;;;;;5005668;28;20033;-74
2023/10/21 00:57:23;;;;;;;6.13;3.28;;;;;;;;;;5000246;28;20061;-74
2023/10/21 00:59:49;;;;;;;6.13;3.42;;;;;;;;;;4999203;28;20038;-74
2023/10/21 01:02:15;;;;;;;10.93;4.57;;;;;;;;;;4984430;28;20042;-74
2023/10/21 01:04:41;;;;;;;13.77;3.95;;;;;;;;;;4982717;28;20092;-74
2023/10/21 01:07:15;;;;;;;6.78;3.80;;;;;;;;;;4983934;28;20080;-74
2023/10/21 01:09:40;;;;;;;10.95;4.70;;;;;;;;;;4984427;28;20173;-74
2023/10/21 01:12:06;;;;;;;10.30;3.92;;;;;;;;;;4984180;28;20864;-74
2023/10/21 01:14:31;;;;;;;12.35;3.80;;;;;;;;;;4983916;28;20034;-74
2023/10/21 01:16:57;;;;;;;8.07;3.83;;;;;;;;;;4983892;28;20042;-74
2023/10/21 01:19:22;;;;;;;8.60;3.83;;;;;;;;;;4984069;28;20035;-74
2023/10/21 01:21:47;;;;;;;7.38;3.60;;;;;;;;;;4983604;28;20038;-74
2023/10/21 01:24:13;;;;;;;10.05;3.53;;;;;;;;;;4982031;28;20035;-74
2023/10/21 01:26:38;;;;;;;8.73;3.72;;;;;;;;;;4983872;28;20038;-74
2023/10/21 01:29:09;;;;;;;7.45;3.28;;;;;;;;;;4983373;28;20034;-74
2023/10/21 01:31:35;;;;;;;11.52;3.75;;;;;;;;;;4983691;28;20056;-74
2023/10/21 01:34:00;;;;;;;10.15;3.47;;;;;;;;;;4984302;28;20481;-74
2023/10/21 01:36:27;;;;;;;9.05;3.40;;;;;;;;;;4981577;28;20041;-74
2023/10/21 01:38:52;;;;;;;9.73;3.45;;;;;;;;;;4983984;28;20042;-74
2023/10/21 01:41:18;;;;;;;9.77;3.50;;;;;;;;;;4985778;28;20084;-74
2023/10/21 01:43:44;;;;;;;15.68;3.95;;;;;;;;;;5002097;28;20793;-74
2023/10/21 01:46:09;;;;;;;10.07;3.65;;;;;;;;;;5004417;28;20580;-74
2023/10/21 01:48:35;;;;;;;7.97;3.50;;;;;;;;;;5003953;28;20520;-74
2023/10/21 01:51:04;;;;;;;11.00;3.55;;;;;;;;;;4997901;28;20038;-74
2023/10/21 01:53:31;;;;;;;8.00;3.03;;;;;;;;;;5002461;28;20031;-74
2023/10/21 01:56:03;;;;;;;8.23;3.88;;;;;;;;;;4998641;28;20061;-74
2023/10/21 01:58:30;;;;;;;10.57;3.80;;;;;;;;;;5000644;28;20603;-74
2023/10/21 02:00:55;;;;;;;6.70;3.38;;;;;;;;;;5005721;28;20027;-74
2023/10/21 02:03:21;;;;;;;10.43;4.97;;;;;;;;;;4969575;28;20039;-73
2023/10/21 02:05:46;;;;;;;6.15;3.28;;;;;;;;;;4987059;28;20043;-74
2023/10/21 02:08:11;;;;;;;16.88;4.30;;;;;;;;;;4969351;28;20088;-74
2023/10/21 02:10:41;;;;;;;13.57;4.28;;;;;;;;;;4987214;28;20022;-74
2023/10/21 02:13:06;;;;;;;9.00;4.30;;;;;;;;;;5002804;28;20056;-74
2023/10/21 02:15:35;;;;;;;12.02;4.40;;;;;;;;;;4989043;28;20054;-74
2023/10/21 02:18:00;;;;;;;8.63;4.45;;;;;;;;;;5006501;28;20034;-74
2023/10/21 02:20:25;;;;;;;7.82;4.18;;;;;;;;;;5005797;28;20030;-74
2023/10/21 02:22:51;;;;;;;11.23;4.43;;;;;;;;;;4988440;28;20779;-74
2023/10/21 02:25:16;;;;;;;8.68;4.07;;;;;;;;;;4989284;28;20030;-74
2023/10/21 02:27:42;;;;;;;9.40;4.05;;;;;;;;;;5006015;28;20049;-74
2023/10/21 02:30:15;;;;;;;9.52;3.80;;;;;;;;;;5006056;28;20045;-74
2023/10/21 02:32:44;;;;;;;9.20;4.07;;;;;;;;;;5005843;28;20034;-74
2023/10/21 02:35:10;;;;;;;9.85;4.13;;;;;;;;;;4988202;28;20038;-74
2023/10/21 02:37:35;;;;;;;9.73;4.43;;;;;;;;;;4988196;28;20022;-74
2023/10/21 02:40:03;;;;;;;7.35;4.28;;;;;;;;;;4988728;28;20022;-74
2023/10/21 02:42:29;;;;;;;11.75;4.07;;;;;;;;;;5005910;28;20034;-74
2023/10/21 02:44:54;;;;;;;7.55;2.92;;;;;;;;;;5005630;28;20033;-74
2023/10/21 02:47:20;;;;;;;6.38;3.20;;;;;;;;;;5005925;28;20038;-74
2023/10/21 02:49:45;;;;;;;9.88;3.50;;;;;;;;;;5005523;28;20404;-73
2023/10/21 02:52:10;;;;;;;7.40;2.70;;;;;;;;;;4988486;28;20506;-74
2023/10/21 02:54:36;;;;;;;7.70;2.80;;;;;;;;;;5005453;28;20550;-74
2023/10/21 02:57:01;;;;;;;7.10;3.00;;;;;;;;;;5005237;28;20089;-74
2023/10/21 02:59:26;;;;;;;7.10;2.63;;;;;;;;;;5004733;28;20058;-74
2023/10/21 03:01:52;;;;;;;7.28;3.13;;;;;;;;;;5005731;28;20041;-74
2023/10/21 03:04:18;;;;;;;8.55;3.10;;;;;;;;;;5003097;28;20010;-74
2023/10/21 03:06:43;;;;;;;10.43;3.65;;;;;;;;;;4976796;28;20130;-74
2023/10/21 03:09:09;;;;;;;5.70;3.40;;;;;;;;;;4968699;28;20149;-74
2023/10/21 03:11:34;;;;;;;4.90;2.90;;;;;;;;;;4998801;28;20033;-74
2023/10/21 03:14:00;;;;;;;9.43;3.10;;;;;;;;;;5017287;28;20045;-74
2023/10/21 03:16:25;;;;;;;9.70;3.10;;;;;;;;;;5014926;28;20164;-74
2023/10/21 03:18:51;;;;;;;7.05;2.90;;;;;;;;;;5004974;28;20036;-74
2023/10/21 03:21:17;;;;;;;5.82;2.38;;;;;;;;;;5004573;28;20041;-74
2023/10/21 03:23:42;;;;;;;7.38;3.00;;;;;;;;;;5004765;28;20080;-74
2023/10/21 03:26:08;;;;;;;7.38;3.35;;;;;;;;;;5004894;28;20034;-74
2023/10/21 03:28:34;;;;;;;10.88;3.05;;;;;;;;;;5005261;28;20041;-74
2023/10/21 03:31:02;;;;;;;8.00;3.03;;;;;;;;;;4987269;28;20041;-74
2023/10/21 03:33:28;;;;;;;9.52;3.15;;;;;;;;;;5004648;28;20026;-74
2023/10/21 03:35:55;;;;;;;6.75;3.30;;;;;;;;;;5004687;28;20480;-74
2023/10/21 03:38:21;;;;;;;8.82;3.55;;;;;;;;;;5004803;28;20065;-74
2023/10/21 03:40:59;;;;;;;5.95;3.42;;;;;;;;;;5004733;28;20072;-74
2023/10/21 03:43:26;;;;;;;6.30;3.00;;;;;;;;;;5004947;28;20032;-74
2023/10/21 03:45:52;;;;;;;5.10;3.08;;;;;;;;;;4986662;28;20042;-74
2023/10/21 03:48:18;;;;;;;9.35;3.30;;;;;;;;;;5004034;28;20117;-74
2023/10/21 03:50:43;;;;;;;8.88;3.17;;;;;;;;;;5004648;28;20184;-74
2023/10/21 03:53:08;;;;;;;6.90;3.15;;;;;;;;;;5004046;28;20076;-74
2023/10/21 03:55:34;;;;;;;7.07;2.92;;;;;;;;;;5003273;28;20034;-74
2023/10/21 03:58:00;;;;;;;5.22;2.70;;;;;;;;;;4998678;28;20063;-74
2023/10/21 04:00:25;;;;;;;6.05;3.08;;;;;;;;;;5023492;28;20029;-74
2023/10/21 04:02:50;;;;;;;8.52;2.85;;;;;;;;;;5024618;28;20034;-74
2023/10/21 04:05:17;;;;;;;7.63;3.38;;;;;;;;;;5006423;28;20037;-74
2023/10/21 04:07:44;;;;;;;8.02;2.85;;;;;;;;;;5005637;28;20021;-74
2023/10/21 04:10:10;;;;;;;6.57;3.03;;;;;;;;;;5024509;28;20036;-74
2023/10/21 04:12:36;;;;;;;6.88;3.20;;;;;;;;;;5006132;28;20029;-74
2023/10/21 04:15:02;;;;;;;5.05;2.72;;;;;;;;;;5006259;28;20057;-74
2023/10/21 04:17:27;;;;;;;6.50;2.53;;;;;;;;;;5023766;28;20468;-74
2023/10/21 04:19:53;;;;;;;5.32;2.80;;;;;;;;;;5023746;28;20112;-74
2023/10/21 04:22:18;;;;;;;5.90;2.50;;;;;;;;;;5023924;28;20028;-74
2023/10/21 04:24:43;;;;;;;5.32;2.65;;;;;;;;;;5024092;28;21012;-74
2023/10/21 04:27:09;;;;;;;5.38;3.03;;;;;;;;;;5006350;28;20055;-74
2023/10/21 04:29:34;;;;;;;4.90;2.80;;;;;;;;;;5024815;28;20041;-74
2023/10/21 04:31:59;;;;;;;4.47;2.13;;;;;;;;;;5027261;28;20037;-74
2023/10/21 04:34:25;;;;;;;6.88;2.38;;;;;;;;;;5019200;28;20021;-74
2023/10/21 04:36:50;;;;;;;4.03;2.00;;;;;;;;;;5041681;28;20030;-75
2023/10/21 04:39:16;;;;;;;7.75;2.40;;;;;;;;;;5028039;28;20037;-74
2023/10/21 04:41:42;;;;;;;2.22;1.92;;;;;;;;;;5024658;28;20475;-74
2023/10/21 04:44:07;;;;;;;4.68;2.10;;;;;;;;;;5023713;28;20029;-74
2023/10/21 04:46:33;;;;;;;3.20;1.30;;;;;;;;;;5005645;28;20401;-74
2023/10/21 04:48:58;;;;;;;2.00;1.30;;;;;;;;;;5023828;28;20115;-74
2023/10/21 04:51:24;;;;;;;1.40;0.90;;;;;;;;;;5005474;28;20124;-74
2023/10/21 04:53:49;;;;;;;2.28;1.00;;;;;;;;;;5023617;28;20110;-74
2023/10/21 04:56:14;;;;;;;1.38;1.00;;;;;;;;;;5004085;28;20065;-74
2023/10/21 04:58:40;;;;;;;2.08;1.00;;;;;;;;;;5017870;28;20033;-74
2023/10/21 05:01:05;;;;;;;3.95;1.10;;;;;;;;;;5012425;28;20053;-74
2023/10/21 05:03:31;;;;;;;1.27;0.95;;;;;;;;;;5011395;28;20099;-74
2023/10/21 05:05:56;;;;;;;1.88;1.08;;;;;;;;;;5015704;28;20539;-74
2023/10/21 05:08:22;;;;;;;1.73;0.80;;;;;;;;;;5004914;28;20100;-74
2023/10/21 05:10:48;;;;;;;2.97;1.00;;;;;;;;;;5010156;28;20036;-74
2023/10/21 05:13:16;;;;;;;3.60;1.02;;;;;;;;;;5022864;28;20029;-74
2023/10/21 05:15:42;;;;;;;2.75;0.95;;;;;;;;;;5006077;28;20096;-74
2023/10/21 05:18:07;;;;;;;5.95;0.95;;;;;;;;;;5007338;28;20516;-74
2023/10/21 05:20:32;;;;;;;1.90;0.90;;;;;;;;;;5022665;28;20065;-74
2023/10/21 05:22:58;;;;;;;1.02;0.70;;;;;;;;;;5004287;28;20060;-73
2023/10/21 05:25:23;;;;;;;0.77;0.70;;;;;;;;;;5023207;28;20082;-74
2023/10/21 05:27:48;;;;;;;1.23;0.75;;;;;;;;;;5022355;28;20054;-74
2023/10/21 05:30:14;;;;;;;1.33;0.63;;;;;;;;;;5006627;28;20115;-74
2023/10/21 05:32:39;;;;;;;3.15;0.77;;;;;;;;;;5008626;28;20172;-74
2023/10/21 05:35:07;;;;;;;2.70;1.00;;;;;;;;;;5025514;28;20029;-74
2023/10/21 05:37:33;;;;;;;2.55;0.65;;;;;;;;;;5026571;28;20097;-74
2023/10/21 05:39:58;;;;;;;0.77;0.77;;;;;;;;;;5024191;28;20034;-74
2023/10/21 05:42:24;;;;;;;3.03;0.80;;;;;;;;;;5012773;28;20041;-74
2023/10/21 05:44:49;;;;;;;1.67;0.90;;;;;;;;;;5006418;28;20034;-74
2023/10/21 05:47:14;;;;;;;0.88;0.80;;;;;;;;;;5005155;28;20069;-74
2023/10/21 05:49:40;;;;;;;3.90;0.90;;;;;;;;;;5007453;28;20033;-74
2023/10/21 05:52:05;;;;;;;1.33;0.70;;;;;;;;;;5009162;28;20915;-74
2023/10/21 05:54:31;;;;;;;1.25;0.77;;;;;;;;;;5016793;28;20113;-74
2023/10/21 05:56:57;;;;;;;1.67;0.60;;;;;;;;;;5018521;28;20050;-74
2023/10/21 05:59:22;;;;;;;0.75;0.60;;;;;;;;;;5026773;28;20553;-74
2023/10/21 06:01:47;;;;;;;2.78;1.00;;;;;;;;;;5025280;28;20155;-74
2023/10/21 06:04:13;;;;;;;2.15;0.80;;;;;;;;;;5025946;28;20048;-74
2023/10/21 06:06:38;;;;;;;2.90;0.70;;;;;;;;;;5025579;28;20036;-74
2023/10/21 06:09:04;;;;;;;1.15;0.63;;;;;;;;;;5024667;28;20048;-74
2023/10/21 06:11:29;;;;;;;1.02;0.60;;;;;;;;;;5007698;28;20136;-74
2023/10/21 06:13:55;;;;;;;0.70;0.60;;;;;;;;;;5007548;28;20045;-74
2023/10/21 06:16:21;;;;;;;1.92;0.70;;;;;;;;;;5026608;28;20044;-74
2023/10/21 06:18:46;;;;;;;2.42;1.05;;;;;;;;;;5007376;28;20171;-74
2023/10/21 06:21:11;;;;;;;2.15;0.60;;;;;;;;;;5024056;28;20692;-74
2023/10/21 06:23:38;;;;;;;1.40;0.73;;;;;;;;;;5007496;28;20045;-74
2023/10/21 06:26:10;;;;;;;0.70;0.60;;;;;;;;;;5006857;28;20570;-74
2023/10/21 06:28:37;;;;;;;3.05;0.65;;;;;;;;;;5007459;28;20026;-74
2023/10/21 06:31:04;;;;;;;2.00;0.75;;;;;;;;;;5025468;28;20393;-74
2023/10/21 06:33:29;;;;;;;1.08;0.60;;;;;;;;;;4987890;28;20460;-73
2023/10/21 06:35:55;;;;;;;1.05;0.77;;;;;;;;;;5005133;28;20528;-74
2023/10/21 06:38:20;;;;;;;1.95;0.80;;;;;;;;;;5007029;28;20046;-74
2023/10/21 06:40:46;;;;;;;2.58;1.00;;;;;;;;;;5023428;28;20026;-74
2023/10/21 06:43:11;;;;;;;4.82;1.30;;;;;;;;;;5025440;28;20044;-74
2023/10/21 06:45:38;;;;;;;1.65;1.10;;;;;;;;;;5023555;28;20056;-74
2023/10/21 06:48:04;;;;;;;2.80;1.45;;;;;;;;;;5019823;28;20049;-74
2023/10/21 06:50:31;;;;;;;1.95;1.20;;;;;;;;;;5005691;28;20614;-74
2023/10/21 06:52:56;;;;;;;4.88;1.42;;;;;;;;;;4987517;28;20532;-73
2023/10/21 06:55:22;;;;;;;2.15;1.20;;;;;;;;;;5012038;28;20132;-74
2023/10/21 06:57:47;;;;;;;1.45;1.30;;;;;;;;;;5009019;28;20049;-75
2023/10/21 07:00:13;;;;;;;2.30;1.80;;;;;;;;;;5007035;28;20041;-73
2023/10/21 07:02:39;;;;;;;5.32;1.30;;;;;;;;;;5001770;28;20034;-73
2023/10/21 07:05:09;;;;;;;3.13;1.23;;;;;;;;;;5003300;28;20056;-74
2023/10/21 07:07:36;;;;;;;1.45;0.90;;;;;;;;;;5003750;28;20128;-73
2023/10/21 07:10:01;;;;;;;2.50;1.08;;;;;;;;;;5004513;28;20053;-73
2023/10/21 07:12:27;;;;;;;5.82;1.42;;;;;;;;;;5010288;28;20041;-73
2023/10/21 07:14:52;;;;;;;5.63;1.63;;;;;;;;;;5011956;28;20087;-73
2023/10/21 07:17:18;;;;;;;4.75;1.40;;;;;;;;;;5037061;28;20424;-73
2023/10/21 07:19:44;;;;;;;2.47;0.80;;;;;;;;;;5032285;28;20029;-73
2023/10/21 07:22:09;;;;;;;1.95;0.90;;;;;;;;;;5005253;28;20031;-73
2023/10/21 07:24:35;;;;;;;1.45;0.95;;;;;;;;;;5005065;28;20068;-73
2023/10/21 07:27:01;;;;;;;1.75;1.00;;;;;;;;;;5022118;28;20044;-73
2023/10/21 07:29:26;;;;;;;3.47;0.98;;;;;;;;;;5013855;28;20037;-74
2023/10/21 07:31:52;;;;;;;1.80;1.08;;;;;;;;;;5011318;28;20072;-73
2023/10/21 07:34:17;;;;;;;3.00;0.80;;;;;;;;;;5019766;28;20893;-74
2023/10/21 07:36:43;;;;;;;4.68;1.10;;;;;;;;;;5030808;28;20060;-73
2023/10/21 07:39:08;;;;;;;4.63;1.58;;;;;;;;;;5014786;28;20559;-73
2023/10/21 07:41:34;;;;;;;9.27;3.17;;;;;;;;;;5018107;28;20509;-73
2023/10/21 07:44:00;;;;;;;3.67;1.38;;;;;;;;;;4997555;28;20041;-73
2023/10/21 07:46:25;;;;;;;5.90;2.40;;;;;;;;;;5017156;28;20033;-74
2023/10/21 07:48:51;;;;;;;5.50;1.10;;;;;;;;;;5018550;28;20491;-74
2023/10/21 07:51:18;;;;;;;8.45;2.10;;;;;;;;;;5020217;28;20038;-74
2023/10/21 07:53:43;;;;;;;2.85;1.40;;;;;;;;;;5022539;28;20527;-73
2023/10/21 07:56:09;;;;;;;6.90;1.92;;;;;;;;;;5004684;28;20133;-73
2023/10/21 07:58:35;;;;;;;3.95;1.15;;;;;;;;;;5018746;28;20712;-74
2023/10/21 08:01:01;;;;;;;2.65;0.90;;;;;;;;;;5017946;28;20032;-74
2023/10/21 08:03:26;;;;;;;3.58;1.30;;;;;;;;;;5012241;28;20029;-74
2023/10/21 08:05:52;;;;;;;6.15;1.00;;;;;;;;;;5012200;28;20064;-74
2023/10/21 08:08:17;;;;;;;3.50;1.00;;;;;;;;;;5022875;28;20033;-74
2023/10/21 08:10:44;;;;;;;1.73;1.20;;;;;;;;;;5021857;28;20036;-74
2023/10/21 08:13:09;;;;;;;5.13;1.40;;;;;;;;;;5014950;28;20021;-74
2023/10/21 08:15:34;;;;;;;5.72;1.42;;;;;;;;;;5005242;28;20083;-74
2023/10/21 08:18:00;;;;;;;4.15;0.85;;;;;;;;;;5023565;28;20630;-74
2023/10/21 08:20:26;;;;;;;5.93;0.77;;;;;;;;;;5014883;28;20038;-73
2023/10/21 08:22:51;;;;;;;3.55;0.60;;;;;;;;;;5021421;28;20104;-74
2023/10/21 08:25:17;;;;;;;5.55;1.00;;;;;;;;;;5016237;28;20217;-74
2023/10/21 08:27:43;;;;;;;3.55;1.20;;;;;;;;;;5013231;28;20057;-74
2023/10/21 08:30:09;;;;;;;3.72;0.70;;;;;;;;;;5015345;28;20029;-74
2023/10/21 08:32:35;;;;;;;3.03;0.85;;;;;;;;;;5024822;28;20460;-73
2023/10/21 08:35:00;;;;;;;3.50;0.85;;;;;;;;;;5032476;28;20053;-74
2023/10/21 08:37:26;;;;;;;2.80;0.85;;;;;;;;;;5036378;28;20044;-73
2023/10/21 08:39:51;;;;;;;4.35;1.08;;;;;;;;;;5025917;28;20083;-74
2023/10/21 08:42:17;;;;;;;3.17;0.80;;;;;;;;;;5021931;28;20401;-74
2023/10/21 08:44:48;;;;;;;5.72;0.88;;;;;;;;;;5023527;28;20132;-74
2023/10/21 08:47:16;;;;;;;2.90;0.88;;;;;;;;;;5019657;28;20752;-74
2023/10/21 08:49:42;;;;;;;1.90;0.77;;;;;;;;;;5003838;28;20052;-74
2023/10/21 08:52:10;;;;;;;3.88;0.65;;;;;;;;;;5022831;28;20465;-74
2023/10/21 08:54:36;;;;;;;5.10;1.05;;;;;;;;;;5003149;28;20091;-74
2023/10/21 08:57:03;;;;;;;2.35;1.13;;;;;;;;;;5020981;28;20053;-74
2023/10/21 08:59:29;;;;;;;5.07;0.90;;;;;;;;;;5017169;28;20962;-73
2023/10/21 09:01:54;;;;;;;3.22;1.05;;;;;;;;;;5022315;28;20144;-74
2023/10/21 09:04:22;;;;;;;6.07;0.82;;;;;;;;;;5006419;28;20044;-74
2023/10/21 09:06:55;;;;;;;5.13;1.33;;;;;;;;;;5014742;28;20081;-74
2023/10/21 09:09:23;;;;;;;4.13;1.08;;;;;;;;;;5000741;28;20038;-76
2023/10/21 09:12:04;;;;;;;5.78;1.00;;;;;;;;;;4985312;28;20128;-73
2023/10/21 09:14:31;;;;;;;10.07;1.17;;;;;;;;;;4994197;28;20133;-73
2023/10/21 09:16:57;;;;;;;7.15;1.27;;;;;;;;;;5001167;28;20044;-74
2023/10/21 09:19:29;;;;;;;3.40;1.00;;;;;;;;;;5002902;28;20034;-74
2023/10/21 09:21:54;;;;;;;7.95;1.30;;;;;;;;;;5000602;28;20042;-74
2023/10/21 09:24:22;;;;;;;7.65;1.05;;;;;;;;;;5007755;28;20034;-74
2023/10/21 09:26:48;;;;;;;8.13;1.40;;;;;;;;;;5001219;28;20720;-74
2023/10/21 09:29:20;;;;;;;7.35;1.10;;;;;;;;;;5021814;28;20068;-74
2023/10/21 09:31:54;;;;;;;3.58;0.70;;;;;;;;;;5021675;28;20036;-74
2023/10/21 09:34:26;;;;;;;3.92;0.68;;;;;;;;;;5020465;28;20952;-74
2023/10/21 09:36:58;;;;;;;5.35;1.45;;;;;;;;;;5001953;28;20034;-74
2023/10/21 09:39:26;;;;;;;3.28;0.80;;;;;;;;;;5007398;28;20046;-74
2023/10/21 09:41:52;;;;;;;6.43;1.25;;;;;;;;;;4998993;28;20053;-74
2023/10/21 09:44:19;;;;;;;3.90;0.80;;;;;;;;;;5003057;28;20432;-74
2023/10/21 09:46:45;;;;;;;4.30;1.00;;;;;;;;;;5002670;28;20120;-74
2023/10/21 09:49:15;;;;;;;6.22;1.15;;;;;;;;;;5004787;28;20143;-74
2023/10/21 09:52:10;;;;;;;6.32;1.23;;;;;;;;;;5023532;28;20048;-74
2023/10/21 09:54:56;;;;;;;2.30;0.70;;;;;;;;;;5014148;28;20065;-74
2023/10/21 09:57:22;;;;;;;6.20;1.17;;;;;;;;;;5039571;28;20057;-74
2023/10/21 09:59:48;;;;;;;4.47;1.00;;;;;;;;;;5029309;28;20034;-74
2023/10/21 10:02:14;;;;;;;4.70;1.20;;;;;;;;;;5023763;28;20048;-75
2023/10/21 10:04:40;;;;;;;5.28;1.20;;;;;;;;;;5023023;28;20038;-75
2023/10/21 10:07:06;;;;;;;2.72;0.73;;;;;;;;;;5022383;28;20037;-75
2023/10/21 10:09:36;;;;;;;5.10;1.02;;;;;;;;;;5022382;28;20034;-75
2023/10/21 10:12:07;;;;;;;3.60;1.20;;;;;;;;;;5021685;28;20037;-74
2023/10/21 10:14:33;;;;;;;5.07;1.42;;;;;;;;;;4983890;28;20608;-74
2023/10/21 10:16:59;;;;;;;2.50;0.95;;;;;;;;;;5011059;28;20089;-74
2023/10/21 10:19:42;;;;;;;7.70;1.05;;;;;;;;;;5007036;28;20030;-74
2023/10/21 10:22:42;;;;;;;4.40;1.10;;;;;;;;;;5006239;28;20049;-74
2023/10/21 10:25:10;;;;;;;4.60;0.93;;;;;;;;;;4981227;28;20509;-74
2023/10/21 10:27:38;;;;;;;6.25;0.80;;;;;;;;;;5025864;28;20039;-73
2023/10/21 10:30:22;;;;;;;8.18;1.42;;;;;;;;;;5024837;28;20029;-74
2023/10/21 10:32:51;;;;;;;6.35;1.10;;;;;;;;;;5007502;28;20053;-74
2023/10/21 10:35:31;;;;;;;5.25;1.13;;;;;;;;;;5025242;28;20041;-74
2023/10/21 10:37:57;;;;;;;6.70;1.42;;;;;;;;;;5024830;28;20519;-73
2023/10/21 10:40:38;;;;;;;2.83;0.90;;;;;;;;;;5002321;28;20052;-74
2023/10/21 10:43:10;;;;;;;3.30;1.15;;;;;;;;;;5006882;28;20049;-74
2023/10/21 10:45:36;;;;;;;3.35;0.85;;;;;;;;;;5025192;28;20061;-73
2023/10/21 10:48:03;;;;;;;8.80;1.58;;;;;;;;;;5024615;28;20038;-73
2023/10/21 10:50:30;;;;;;;5.95;1.02;;;;;;;;;;5024014;28;20417;-73
2023/10/21 10:52:55;;;;;;;11.65;1.90;;;;;;;;;;5024852;28;20037;-74
2023/10/21 10:55:21;;;;;;;5.63;1.33;;;;;;;;;;5024165;28;20088;-74
2023/10/21 10:57:48;;;;;;;9.65;1.40;;;;;;;;;;5009984;28;20445;-74
2023/10/21 11:00:20;;;;;;;5.40;0.75;;;;;;;;;;5006920;28;20040;-74
2023/10/21 11:02:48;;;;;;;11.25;1.65;;;;;;;;;;5024885;28;20033;-74
2023/10/21 11:05:20;;;;;;;7.15;0.95;;;;;;;;;;5004480;28;20041;-74
2023/10/21 11:07:46;;;;;;;4.40;1.05;;;;;;;;;;5023021;28;20026;-74
2023/10/21 11:10:17;;;;;;;4.78;1.20;;;;;;;;;;5025962;28;20033;-74
2023/10/21 11:12:42;;;;;;;8.25;1.48;;;;;;;;;;5022446;28;20077;-74
2023/10/21 11:15:08;;;;;;;7.93;1.17;;;;;;;;;;5014528;28;20030;-74
2023/10/21 11:17:34;;;;;;;3.35;0.93;;;;;;;;;;4997547;28;20045;-74
2023/10/21 11:20:00;;;;;;;5.90;1.30;;;;;;;;;;5004880;28;20033;-74
2023/10/21 11:22:26;;;;;;;5.57;1.23;;;;;;;;;;5005206;28;20029;-74
2023/10/21 11:24:54;;;;;;;9.38;1.45;;;;;;;;;;5002927;28;20038;-73
2023/10/21 11:27:20;;;;;;;9.02;1.60;;;;;;;;;;5003627;28;20116;-74
2023/10/21 11:29:46;;;;;;;7.82;1.20;;;;;;;;;;5004167;28;20046;-74
2023/10/21 11:32:14;;;;;;;9.50;2.10;;;;;;;;;;4986659;28;20068;-74
2023/10/21 11:34:43;;;;;;;3.25;1.25;;;;;;;;;;4986092;28;20044;-74
2023/10/21 11:37:10;;;;;;;5.13;1.15;;;;;;;;;;5004322;28;20496;-74
2023/10/21 11:39:35;;;;;;;5.88;1.40;;;;;;;;;;5004167;28;20631;-74
2023/10/21 11:42:01;;;;;;;11.40;1.40;;;;;;;;;;5004092;28;20034;-74
2023/10/21 11:44:32;;;;;;;5.70;1.67;;;;;;;;;;4986359;28;20048;-74
2023/10/21 11:46:58;;;;;;;4.22;1.42;;;;;;;;;;5004566;28;20125;-74
2023/10/21 11:49:25;;;;;;;3.78;0.77;;;;;;;;;;5005018;28;20054;-74
2023/10/21 11:51:52;;;;;;;6.68;1.73;;;;;;;;;;5004391;28;20038;-74
2023/10/21 11:57:40;;;;;;;6.38;1.50;;;;;;;;;;4995337;28;20054;-74
2023/10/21 12:29:55;;;;;;;4.85;0.95;;;;;;;;;;5003082;28;20044;-73
2023/10/21 12:39:56;;;;;;;3.83;1.63;;;;;;;;;;5028155;28;20576;-73
2023/10/21 12:42:29;;;;;;;3.28;0.90;;;;;;;;;;5025293;28;20516;-74
2023/10/21 12:44:57;;;;;;;5.68;1.60;;;;;;;;;;5006263;28;20064;-74
2023/10/21 12:47:27;;;;;;;4.25;1.15;;;;;;;;;;5023732;28;20111;-74
2023/10/21 12:49:55;;;;;;;9.73;1.45;;;;;;;;;;5023370;28;20040;-74
2023/10/21 12:52:21;;;;;;;7.03;1.08;;;;;;;;;;5022821;28;20079;-74
2023/10/21 12:54:47;;;;;;;4.00;1.15;;;;;;;;;;5005159;28;20529;-74
2023/10/21 12:57:14;;;;;;;5.40;1.27;;;;;;;;;;5022108;28;20132;-74
2023/10/21 12:59:40;;;;;;;3.63;1.10;;;;;;;;;;5004160;28;20745;-74
2023/10/21 13:02:09;;;;;;;8.95;1.20;;;;;;;;;;5023018;28;20045;-73
2023/10/21 13:04:38;;;;;;;5.47;1.02;;;;;;;;;;5022532;28;20111;-73
2023/10/21 13:07:05;;;;;;;6.55;1.13;;;;;;;;;;5022238;28;20523;-74
2023/10/21 13:09:31;;;;;;;4.80;0.93;;;;;;;;;;5020559;28;20124;-73
2023/10/21 13:11:57;;;;;;;5.93;1.10;;;;;;;;;;5003841;28;20463;-73
2023/10/21 13:14:23;;;;;;;9.10;1.40;;;;;;;;;;5001473;28;20030;-73
2023/10/21 13:16:49;;;;;;;6.05;1.10;;;;;;;;;;5002036;28;20042;-73
2023/10/21 13:19:15;;;;;;;4.57;1.40;;;;;;;;;;5002292;28;20044;-72
2023/10/21 13:21:40;;;;;;;5.10;1.33;;;;;;;;;;5002302;28;20073;-72
2023/10/21 13:24:07;;;;;;;4.95;0.93;;;;;;;;;;4985201;28;20051;-73
2023/10/21 13:26:32;;;;;;;4.72;0.95;;;;;;;;;;5001183;28;20558;-73
2023/10/21 13:28:59;;;;;;;4.53;1.13;;;;;;;;;;5002436;28;20046;-72
2023/10/21 13:31:25;;;;;;;5.45;0.98;;;;;;;;;;5002992;28;20034;-73
2023/10/21 13:33:50;;;;;;;9.73;1.00;;;;;;;;;;4984574;28;20042;-73
2023/10/21 13:36:16;;;;;;;2.67;1.20;;;;;;;;;;5002092;28;20073;-73
2023/10/21 13:38:41;;;;;;;5.50;1.08;;;;;;;;;;5002085;28;20038;-73
2023/10/21 13:41:08;;;;;;;3.70;0.90;;;;;;;;;;5002913;28;20048;-73
2023/10/21 13:43:33;;;;;;;5.53;1.23;;;;;;;;;;5002405;28;20049;-72
2023/10/21 13:46:03;;;;;;;7.25;1.02;;;;;;;;;;5002428;28;20108;-73
2023/10/21 13:48:28;;;;;;;4.05;0.85;;;;;;;;;;4985570;28;20125;-73
2023/10/21 13:50:54;;;;;;;3.03;1.13;;;;;;;;;;5010691;28;20200;-72
2023/10/21 13:53:24;;;;;;;8.30;2.03;;;;;;;;;;5005404;28;20038;-72
2023/10/21 13:55:49;;;;;;;5.43;1.00;;;;;;;;;;5014462;28;20076;-73
2023/10/21 13:58:15;;;;;;;4.20;1.30;;;;;;;;;;5002209;28;20302;-73
2023/10/21 14:00:41;;;;;;;4.60;1.00;;;;;;;;;;5000289;28;20111;-72
2023/10/21 14:03:19;;;;;;;3.17;0.88;;;;;;;;;;4997071;28;20061;-73
2023/10/21 14:05:48;;;;;;;2.13;0.95;;;;;;;;;;4999958;28;20033;-73
2023/10/21 14:08:25;;;;;;;9.50;1.40;;;;;;;;;;5004345;28;20042;-72
2023/10/21 14:10:54;;;;;;;6.43;1.20;;;;;;;;;;4987846;28;20046;-73
2023/10/21 14:13:32;;;;;;;5.25;1.33;;;;;;;;;;5014778;28;21491;-73
2023/10/21 14:15:59;;;;;;;5.13;1.40;;;;;;;;;;4996121;28;20056;-73
2023/10/21 14:18:25;;;;;;;5.45;0.93;;;;;;;;;;4997575;28;20137;-73
2023/10/21 14:20:52;;;;;;;9.20;1.38;;;;;;;;;;4999133;28;20042;-73
2023/10/21 14:23:25;;;;;;;5.93;1.33;;;;;;;;;;4999500;28;20046;-73
2023/10/21 14:25:55;;;;;;;5.40;1.20;;;;;;;;;;4993850;28;20140;-73
2023/10/21 14:28:23;;;;;;;2.75;0.95;;;;;;;;;;4998118;28;20552;-73
2023/10/21 14:30:52;;;;;;;6.55;2.05;;;;;;;;;;4991070;28;20042;-73
2023/10/21 14:33:22;;;;;;;5.20;1.45;;;;;;;;;;4995880;28;20504;-73
2023/10/21 14:35:51;;;;;;;6.75;1.42;;;;;;;;;;4994522;28;20044;-73
2023/10/21 14:38:18;;;;;;;3.95;0.98;;;;;;;;;;5000430;28;20144;-73
2023/10/21 14:40:44;;;;;;;8.40;1.02;;;;;;;;;;4994012;28;20038;-73
2023/10/21 14:43:11;;;;;;;6.93;1.33;;;;;;;;;;5003410;28;20057;-73
2023/10/21 14:45:40;;;;;;;3.88;0.80;;;;;;;;;;4994834;28;20077;-73
2023/10/21 14:48:09;;;;;;;6.07;0.95;;;;;;;;;;5001450;28;20836;-73
2023/10/21 14:50:42;;;;;;;6.68;0.90;;;;;;;;;;4999738;28;20168;-73
2023/10/21 14:53:09;;;;;;;6.93;1.25;;;;;;;;;;4998412;28;20184;-73
2023/10/21 14:55:43;;;;;;;1.95;0.80;;;;;;;;;;4997626;28;20490;-70
2023/10/21 14:58:09;;;;;;;3.72;0.90;;;;;;;;;;4951923;28;1216853;-73
2023/10/21 15:00:36;;;;;;;4.63;0.88;;;;;;;;;;4984933;28;20049;-73
2023/10/21 15:03:02;;;;;;;7.75;1.10;;;;;;;;;;4985189;28;20030;-73
2023/10/21 15:05:29;;;;;;;9.85;1.52;;;;;;;;;;4996315;28;20089;-73
2023/10/21 15:07:54;;;;;;;3.75;1.10;;;;;;;;;;4989250;28;20425;-73
2023/10/21 15:10:21;;;;;;;2.72;0.88;;;;;;;;;;4994527;28;20022;-74
2023/10/21 15:12:48;;;;;;;3.65;1.08;;;;;;;;;;5001333;28;20544;-74
2023/10/21 15:15:15;;;;;;;1.40;0.75;;;;;;;;;;5014691;28;20042;-74
2023/10/21 15:17:41;;;;;;;7.22;1.30;;;;;;;;;;5009835;28;20451;-73
2023/10/21 15:20:08;;;;;;;2.95;1.30;;;;;;;;;;4997413;28;20574;-74